Terminal Aerodrome Forecast
Issued by NWS

Home | Current Version | Previous Version | Text Only | Print | Product List | Glossary On
Versions: 1 2 3 4 5 6 7 8 9 10 11 12 13 14 15 16 17 18 19 20 21 22 23 24 25 26 27 28 29 30 31 32 33 34 35
000
FTUS45 KBOI 250101 AAA
TAFTWF
TAF AMD
KTWF 250101Z 2501/2524 19010G20KT P6SM OVC060
     FM250400 25018G26KT 2SM -SN BR OVC020
     FM250700 27025G35KT 5SM -SN BR OVC030
     FM251400 25025G40KT 3SM -SN OVC015
     FM251900 27025G35KT P6SM VCSH SCT025 BKN050=

USA.gov is the U.S. government's official web portal to all federal, state and local government web resources and services.